Time;durP1;ratioP1;P1;durP2;ratioP2;P2;SDS_P1;SDS_P2;PMS_P1;PMS_P2;Temp;Humidity;BMP_temperature;BMP_pressure;BME280_temperature;BME280_humidity;BME280_pressure;Samples;Min_cycle;Max_cycle;Signal;HPM_P1;HPM_P2
2022/02/10 00:05:00;;;;;;;0.43;0.30;;;19.70;49.70;;;;;;6164020;28;20023;-66
2022/02/10 00:14:53;;;;;;;0.30;0.30;;;19.60;49.60;;;;;;6174026;28;20035;-66
2022/02/10 00:18:11;;;;;;;0.90;0.45;;;19.70;49.70;;;;;;6173796;28;20038;-67
2022/02/10 00:21:21;;;;;;;1.20;0.30;;;19.70;49.70;;;;;;6173883;28;20042;-66
2022/02/10 00:34:22;;;;;;;1.42;0.50;;;19.60;49.60;;;;;;6155755;28;20023;-67
2022/02/10 00:37:35;;;;;;;0.30;0.30;;;19.60;49.70;;;;;;6149276;28;20035;-66
2022/02/10 00:40:36;;;;;;;0.40;0.40;;;19.60;50.30;;;;;;6149396;28;20060;-65
2022/02/10 00:43:37;;;;;;;0.40;0.30;;;19.60;49.70;;;;;;6149357;28;20054;-66
2022/02/10 00:46:37;;;;;;;0.40;0.30;;;19.60;49.70;;;;;;6149403;29;20035;-66
2022/02/10 00:49:38;;;;;;;0.57;0.43;;;19.60;49.70;;;;;;6148774;28;20039;-66
2022/02/10 00:52:42;;;;;;;0.60;0.38;;;19.60;49.70;;;;;;6149530;29;20023;-65
2022/02/10 00:55:45;;;;;;;0.55;0.40;;;19.60;49.70;;;;;;6149463;29;20546;-65
2022/02/10 00:58:56;;;;;;;0.60;0.38;;;19.60;49.70;;;;;;6149339;28;20027;-66
2022/02/10 01:31:33;;;;;;;0.70;0.50;;;19.60;49.70;;;;;;6172275;28;20125;-66
2022/02/10 01:34:39;;;;;;;0.52;0.30;;;19.60;49.70;;;;;;6150477;28;20027;-66
2022/02/10 01:37:40;;;;;;;0.40;0.30;;;19.60;49.70;;;;;;6148142;28;20024;-67
2022/02/10 01:41:17;;;;;;;0.43;0.38;;;19.60;49.70;;;;;;6148523;28;20086;-66
2022/02/10 02:04:04;;;;;;;0.20;0.20;;;19.60;49.80;;;;;;6171823;28;20110;-66
2022/02/10 02:07:05;;;;;;;0.40;0.30;;;19.60;49.80;;;;;;6171322;28;20096;-66
2022/02/10 02:10:06;;;;;;;0.45;0.35;;;19.50;49.70;;;;;;6171340;28;20093;-67
2022/02/10 02:13:06;;;;;;;0.80;0.30;;;19.60;49.80;;;;;;6171463;28;20042;-66
2022/02/10 02:16:07;;;;;;;0.38;0.30;;;19.60;49.80;;;;;;6169613;28;20085;-67
2022/02/10 02:19:07;;;;;;;0.40;0.40;;;19.60;49.80;;;;;;6171889;28;20105;-66
2022/02/10 02:22:08;;;;;;;0.40;0.35;;;19.60;49.80;;;;;;6171124;28;20038;-66
2022/02/10 02:25:09;;;;;;;0.30;0.20;;;19.60;49.80;;;;;;6170698;28;20089;-66
2022/02/10 02:28:11;;;;;;;1.83;0.50;;;19.60;49.80;;;;;;6170875;28;20073;-66
2022/02/10 02:31:18;;;;;;;0.50;0.30;;;19.60;49.80;;;;;;6171031;28;20035;-66
2022/02/10 02:34:46;;;;;;;0.22;0.20;;;19.60;49.80;;;;;;6151102;28;20035;-66
2022/02/10 03:07:48;;;;;;;0.40;0.30;;;19.50;49.70;;;;;;6164704;28;20039;-66
2022/02/10 03:13:56;;;;;;;0.30;0.30;;;19.50;49.70;;;;;;6169043;28;20434;-66
2022/02/10 03:20:18;;;;;;;0.45;0.30;;;19.50;49.80;;;;;;6170126;28;20027;-65
2022/02/10 04:03:13;;;;;;;0.45;0.20;;;19.50;49.80;;;;;;6169535;28;20512;-66
2022/02/10 04:06:35;;;;;;;0.22;0.22;;;19.50;49.80;;;;;;6169544;28;20077;-66
2022/02/10 04:13:02;;;;;;;0.35;0.20;;;19.50;49.80;;;;;;6169733;28;20041;-65
2022/02/10 04:32:22;;;;;;;0.40;0.38;;;19.50;49.80;;;;;;6173929;28;20109;-65
2022/02/10 04:53:12;;;;;;;0.30;0.30;;;19.50;49.90;;;;;;6149022;29;20024;-65
2022/02/10 04:55:45;;;;;;;0.30;0.30;;;19.50;49.90;;;;;;6148808;29;20059;-66
2022/02/10 05:33:57;;;;;;;0.75;0.25;;;19.50;49.80;;;;;;6171823;28;20465;-66
2022/02/10 05:37:00;;;;;;;0.88;0.30;;;19.50;49.80;;;;;;6170965;28;20375;-65
2022/02/10 05:40:06;;;;;;;0.22;0.22;;;19.50;49.80;;;;;;6172132;28;20034;-66
2022/02/10 05:56:14;;;;;;;0.52;0.30;;;19.50;49.80;;;;;;6147449;29;20585;-66
2022/02/10 05:59:40;;;;;;;0.20;0.20;;;19.50;49.80;;;;;;6147612;29;20038;-66
2022/02/10 06:49:10;;;;;;;0.20;0.20;;;19.50;49.70;;;;;;6146658;29;20105;-65
2022/02/10 06:53:02;;;;;;;0.80;0.30;;;19.50;49.60;;;;;;6153282;28;20043;-66
2022/02/10 07:46:27;;;;;;;0.63;0.57;;;19.60;49.90;;;;;;6147267;29;20039;-66
2022/02/10 07:48:05;;;;;;;5.47;0.60;;;19.60;49.90;;;;;;6147179;29;20438;-66
2022/02/10 07:58:08;;;;;;;1.45;0.50;;;19.70;50.00;;;;;;6171591;28;20035;-66
2022/02/10 08:05:17;;;;;;;1.35;0.50;;;19.70;49.60;;;;;;6177634;28;20058;-67
2022/02/10 08:51:56;;;;;;;1.58;0.70;;;19.70;50.10;;;;;;6177326;28;20039;-67
2022/02/10 08:57:49;;;;;;;1.08;0.60;;;19.70;50.10;;;;;;6176371;28;20050;-67
2022/02/10 09:01:15;;;;;;;1.05;0.60;;;19.70;50.10;;;;;;6176005;28;20026;-67
2022/02/10 09:04:32;;;;;;;0.90;0.55;;;19.70;50.20;;;;;;6175796;28;20031;-67
2022/02/10 09:08:08;;;;;;;0.50;0.50;;;19.70;50.10;;;;;;6175616;28;20054;-67
2022/02/10 09:15:05;;;;;;;0.65;0.50;;;19.70;50.20;;;;;;6175938;28;20023;-67
2022/02/10 09:18:23;;;;;;;0.70;0.47;;;19.70;50.10;;;;;;6175885;28;20035;-67
2022/02/10 09:25:36;;;;;;;3.55;1.23;;;19.70;50.10;;;;;;6176202;28;20077;-66
2022/02/10 09:48:46;;;;;;;4.75;2.03;;;19.60;48.10;;;;;;6175099;28;20050;-67
2022/02/10 10:01:15;;;;;;;6.60;2.90;;;19.60;48.30;;;;;;6175183;28;20045;-67
2022/02/10 10:04:22;;;;;;;9.63;2.30;;;19.70;48.30;;;;;;6174779;28;20027;-67
2022/02/10 10:14:26;;;;;;;4.28;1.83;;;19.70;49.10;;;;;;6175060;28;20042;-67
2022/02/10 10:20:46;;;;;;;2.70;1.42;;;19.70;49.20;;;;;;6175638;28;20707;-67
2022/02/10 10:50:16;;;;;;;2.08;1.10;;;19.70;49.40;;;;;;6174755;28;20105;-67
2022/02/10 10:56:31;;;;;;;2.90;1.48;;;19.70;49.30;;;;;;6174380;28;20125;-67
2022/02/10 11:00:05;;;;;;;2.78;1.40;;;19.70;49.40;;;;;;6174342;28;20038;-67
2022/02/10 11:36:17;;;;;;;5.93;1.30;;;19.70;49.50;;;;;;6131998;28;20441;-66
2022/02/10 11:37:39;;;;;;;1.88;1.40;;;19.60;49.00;;;;;;6193733;28;20504;-66
2022/02/10 11:45:24;;;;;;;4.30;1.75;;;19.70;49.20;;;;;;6167784;28;20118;-67
2022/02/10 13:02:57;;;;;;;11.32;2.60;;;20.70;47.40;;;;;;6144880;29;20423;-67
2022/02/10 14:21:25;;;;;;;6.13;3.45;;;20.40;49.20;;;;;;6147673;28;20027;-67
2022/02/10 14:27:46;;;;;;;17.30;9.20;;;20.40;49.20;;;;;;6170912;28;20482;-66
2022/02/10 14:30:47;;;;;;;15.50;6.50;;;20.40;49.20;;;;;;6170442;28;20488;-66
2022/02/10 14:33:49;;;;;;;9.10;6.30;;;20.40;49.20;;;;;;6169477;28;20034;-67
2022/02/10 14:36:59;;;;;;;10.70;6.35;;;20.40;49.20;;;;;;6171330;28;20378;-67
2022/02/10 14:40:09;;;;;;;9.45;6.10;;;20.40;49.30;;;;;;6170814;28;20096;-67
2022/02/10 16:11:50;;;;;;;4.95;2.78;;;20.30;45.70;;;;;;6169180;28;20035;-66
2022/02/10 16:16:10;;;;;;;4.72;2.85;;;20.30;46.40;;;;;;6169347;28;20039;-67
2022/02/10 16:18:14;;;;;;;4.32;2.40;;;20.30;46.40;;;;;;6168510;28;20031;-66
2022/02/10 16:21:26;;;;;;;7.07;2.47;;;20.20;45.50;;;;;;6171607;28;20077;-67
2022/02/10 16:24:32;;;;;;;3.92;1.98;;;20.20;45.50;;;;;;6167110;28;20116;-66
2022/02/10 16:27:34;;;;;;;5.10;2.22;;;20.20;45.60;;;;;;6173830;28;20046;-67
2022/02/10 16:30:37;;;;;;;6.38;2.05;;;20.20;45.20;;;;;;6173559;28;20145;-67
2022/02/10 16:33:41;;;;;;;3.78;2.28;;;20.10;45.20;;;;;;6172904;28;20488;-67
2022/02/10 16:36:42;;;;;;;4.43;1.97;;;20.20;45.50;;;;;;6173526;28;20367;-67
2022/02/10 16:39:43;;;;;;;2.30;1.52;;;20.20;45.50;;;;;;6173434;28;20393;-67
2022/02/10 16:42:47;;;;;;;3.88;2.17;;;20.20;45.50;;;;;;6151894;28;20571;-67
2022/02/10 16:45:48;;;;;;;4.05;1.80;;;20.20;45.90;;;;;;6170781;28;20085;-67
2022/02/10 16:48:49;;;;;;;2.13;1.42;;;20.30;46.10;;;;;;6173121;28;20529;-67
2022/02/10 16:51:49;;;;;;;2.53;1.42;;;20.20;46.30;;;;;;6173910;28;20058;-67
2022/02/10 16:55:01;;;;;;;2.80;1.52;;;20.20;46.40;;;;;;6171230;28;20518;-67
2022/02/10 16:58:29;;;;;;;3.20;1.40;;;20.20;46.40;;;;;;6172440;28;20034;-66
2022/02/10 17:01:57;;;;;;;4.35;1.70;;;20.30;46.40;;;;;;6173363;28;20034;-66
2022/02/10 17:18:23;;;;;;;2.08;1.58;;;20.30;47.40;;;;;;6171539;28;20035;-67
2022/02/10 17:27:47;;;;;;;2.30;1.45;;;20.30;47.60;;;;;;6158965;28;20026;-67
2022/02/10 17:31:07;;;;;;;2.33;1.42;;;20.30;47.80;;;;;;6170602;28;20023;-66
2022/02/10 17:37:27;;;;;;;2.35;1.40;;;20.30;47.80;;;;;;6146258;28;20054;-66
2022/02/10 17:53:37;;;;;;;3.55;1.23;;;20.30;47.30;;;;;;6146887;29;20020;-66
2022/02/10 17:56:39;;;;;;;3.90;1.25;;;20.30;47.30;;;;;;6154351;28;20045;-66
2022/02/10 17:59:41;;;;;;;3.00;1.52;;;20.30;47.30;;;;;;6171016;28;20073;-66
2022/02/10 18:02:42;;;;;;;3.65;1.35;;;20.30;47.30;;;;;;6153044;28;20401;-66
2022/02/10 18:06:09;;;;;;;2.00;1.08;;;20.30;47.80;;;;;;6169946;28;20050;-66
2022/02/10 18:15:49;;;;;;;3.55;1.17;;;20.10;48.20;;;;;;6150318;28;20046;-66
2022/02/10 18:19:04;;;;;;;1.88;1.20;;;20.10;48.30;;;;;;6169733;28;20071;-66
2022/02/10 18:25:41;;;;;;;1.70;1.10;;;20.10;48.40;;;;;;6154309;28;20089;-66
2022/02/10 18:28:50;;;;;;;2.35;1.20;;;20.10;48.40;;;;;;6152017;28;20062;-66
2022/02/10 19:01:47;;;;;;;1.42;1.00;;;20.00;48.40;;;;;;6168239;28;20121;-65
2022/02/10 19:11:13;;;;;;;1.02;0.93;;;20.00;48.50;;;;;;6157861;28;20104;-66
2022/02/10 19:14:16;;;;;;;1.75;1.05;;;20.00;48.50;;;;;;6168599;28;20019;-66
2022/02/10 19:17:17;;;;;;;2.58;1.13;;;20.00;48.60;;;;;;6187084;28;20030;-66
2022/02/10 19:20:23;;;;;;;4.20;0.90;;;19.90;48.20;;;;;;6193553;28;20509;-65
2022/02/10 19:23:25;;;;;;;2.35;0.90;;;19.90;48.20;;;;;;6193464;28;20030;-66
2022/02/10 19:26:25;;;;;;;2.88;1.00;;;19.90;48.00;;;;;;6193625;28;20117;-66
2022/02/10 19:29:26;;;;;;;1.00;0.90;;;19.90;48.20;;;;;;6183731;28;20045;-66
2022/02/10 19:32:32;;;;;;;1.98;0.85;;;19.90;48.40;;;;;;6165291;28;20028;-66
2022/02/10 19:35:39;;;;;;;2.15;1.00;;;19.90;48.10;;;;;;6145612;28;20019;-66
2022/02/10 19:38:39;;;;;;;1.38;1.00;;;19.90;48.50;;;;;;6146261;28;20019;-66
2022/02/10 19:41:43;;;;;;;1.88;0.70;;;19.90;48.30;;;;;;6145785;28;20111;-65
2022/02/10 19:44:43;;;;;;;1.25;0.70;;;19.90;48.50;;;;;;6145863;29;20114;-66
2022/02/10 19:47:44;;;;;;;1.58;0.93;;;19.90;48.20;;;;;;6145551;29;20035;-66
2022/02/10 19:50:45;;;;;;;0.82;0.70;;;19.90;48.50;;;;;;6145916;29;20034;-65
2022/02/10 19:53:47;;;;;;;1.73;0.85;;;19.90;48.10;;;;;;6145781;29;20083;-66
2022/02/10 19:56:47;;;;;;;2.47;1.20;;;19.90;48.00;;;;;;6149017;28;20371;-66
2022/02/10 19:59:48;;;;;;;1.67;0.80;;;19.90;48.20;;;;;;6150186;29;20035;-64
2022/02/10 20:02:50;;;;;;;1.77;0.80;;;19.80;47.90;;;;;;6150576;29;20534;-66
2022/02/10 20:05:51;;;;;;;1.20;0.77;;;19.90;48.10;;;;;;6153748;28;20019;-66
2022/02/10 20:08:52;;;;;;;2.97;0.80;;;19.80;47.90;;;;;;6173632;28;20130;-66
2022/02/10 20:11:54;;;;;;;1.13;0.80;;;19.90;48.00;;;;;;6174037;28;20034;-66
2022/02/10 20:14:55;;;;;;;1.08;0.70;;;19.90;48.00;;;;;;6173658;28;20027;-66
2022/02/10 20:17:57;;;;;;;1.63;0.90;;;19.90;48.20;;;;;;6173809;28;20150;-66
2022/02/10 20:20:58;;;;;;;1.30;0.80;;;19.90;48.20;;;;;;6173794;28;20034;-66
2022/02/10 20:23:59;;;;;;;0.85;0.52;;;19.80;48.50;;;;;;6174423;28;20093;-66
2022/02/10 20:26:59;;;;;;;1.27;0.80;;;19.80;48.30;;;;;;6173599;28;20470;-66
2022/02/10 20:30:00;;;;;;;1.50;0.70;;;19.80;48.30;;;;;;6173566;28;20035;-66
2022/02/10 20:33:00;;;;;;;1.10;0.90;;;19.80;48.30;;;;;;6164484;28;20035;-66
2022/02/10 20:36:04;;;;;;;1.05;0.70;;;19.80;48.30;;;;;;6171996;28;20030;-66
2022/02/10 20:39:06;;;;;;;0.77;0.70;;;19.80;48.50;;;;;;6173818;28;20034;-66
2022/02/10 20:42:12;;;;;;;1.30;0.70;;;19.80;48.50;;;;;;6161699;28;20038;-65
2022/02/10 20:45:12;;;;;;;0.90;0.50;;;19.80;48.40;;;;;;6149336;29;20163;-66
2022/02/10 20:48:13;;;;;;;0.77;0.68;;;19.80;48.30;;;;;;6149207;29;20114;-66
2022/02/10 20:51:15;;;;;;;1.52;0.90;;;19.80;48.30;;;;;;6149257;29;20034;-66
2022/02/10 20:54:17;;;;;;;0.80;0.63;;;19.80;48.40;;;;;;6149558;29;20058;-66
2022/02/10 20:57:17;;;;;;;1.52;0.70;;;19.80;48.20;;;;;;6149129;29;20023;-66
2022/02/10 21:00:19;;;;;;;0.68;0.65;;;19.80;48.40;;;;;;6149240;29;20117;-66
2022/02/10 21:03:23;;;;;;;1.23;0.70;;;19.80;48.40;;;;;;6149024;29;20023;-66
2022/02/10 21:09:36;;;;;;;0.82;0.60;;;19.80;48.50;;;;;;6172549;28;20035;-66
2022/02/10 21:12:39;;;;;;;0.90;0.70;;;19.80;48.40;;;;;;6172708;28;20026;-65
2022/02/10 21:15:44;;;;;;;1.35;0.70;;;19.80;48.40;;;;;;6172796;28;20437;-66
2022/02/10 21:18:45;;;;;;;5.82;0.80;;;19.80;48.50;;;;;;6172457;28;20656;-66
2022/02/10 21:21:46;;;;;;;0.98;0.55;;;19.80;48.50;;;;;;6172590;28;20031;-66
2022/02/10 21:28:30;;;;;;;1.20;0.75;;;19.80;48.50;;;;;;6172409;28;20031;-66
2022/02/10 21:31:28;;;;;;;1.20;0.70;;;19.80;48.40;;;;;;6172135;28;20411;-66
2022/02/10 21:34:33;;;;;;;0.98;0.60;;;19.80;48.50;;;;;;6151461;28;20398;-66
2022/02/10 21:37:45;;;;;;;0.60;0.60;;;19.80;48.50;;;;;;6148555;28;20455;-66
2022/02/10 21:54:32;;;;;;;0.95;0.60;;;19.80;48.60;;;;;;6147469;29;20503;-65
2022/02/10 22:00:47;;;;;;;0.60;0.50;;;19.70;48.50;;;;;;6147756;29;20090;-66
2022/02/10 22:07:48;;;;;;;;;;;19.70;48.50;;;;;;6160529;28;20038;-65
2022/02/10 22:10:30;;;;;;;0.65;0.50;;;19.80;48.70;;;;;;6171431;28;19921;-66
2022/02/10 22:19:58;;;;;;;0.55;0.50;;;19.80;48.70;;;;;;6170836;28;20425;-66
2022/02/10 22:23:13;;;;;;;0.85;0.40;;;19.70;48.70;;;;;;6171323;28;20505;-66
2022/02/10 22:26:24;;;;;;;0.52;0.43;;;19.70;48.60;;;;;;6170821;28;20042;-66
2022/02/10 22:29:31;;;;;;;0.75;0.60;;;19.70;48.70;;;;;;6170843;28;20038;-65
2022/02/10 22:35:47;;;;;;;;;;;19.70;48.80;;;;;;6147483;28;20485;-65
2022/02/10 22:38:49;;;;;;;1.02;0.57;;;19.70;48.70;;;;;;6146516;28;19910;-65
2022/02/10 22:41:50;;;;;;;0.80;0.60;;;19.70;48.80;;;;;;6151031;28;20498;-66
2022/02/10 22:44:51;;;;;;;1.75;0.50;;;19.70;48.70;;;;;;6146499;29;20043;-66
2022/02/10 22:47:51;;;;;;;1.10;0.60;;;19.70;48.70;;;;;;6146464;29;20050;-65
2022/02/10 22:50:52;;;;;;;0.75;0.57;;;19.70;48.80;;;;;;6146705;29;20035;-66
2022/02/10 22:53:53;;;;;;;1.10;0.60;;;19.70;48.70;;;;;;6146819;29;20139;-65
2022/02/10 22:56:54;;;;;;;4.07;0.73;;;19.70;48.70;;;;;;6146292;29;20577;-65
2022/02/10 22:59:58;;;;;;;0.73;0.40;;;19.70;48.80;;;;;;6146446;29;20031;-65
2022/02/10 23:02:59;;;;;;;0.90;0.50;;;19.70;48.80;;;;;;6147009;29;20174;-66
2022/02/10 23:05:59;;;;;;;0.90;0.60;;;19.70;48.80;;;;;;6150760;28;20027;-66
2022/02/10 23:09:00;;;;;;;1.17;0.40;;;19.70;48.80;;;;;;6170380;28;20042;-66
2022/02/10 23:12:01;;;;;;;0.68;0.50;;;19.70;48.80;;;;;;6170615;28;20102;-66
2022/02/10 23:15:01;;;;;;;1.27;0.50;;;19.70;48.80;;;;;;6169936;28;20305;-66
2022/02/10 23:18:05;;;;;;;0.68;0.40;;;19.70;48.80;;;;;;6170096;28;20066;-66
2022/02/10 23:21:10;;;;;;;0.90;0.60;;;19.70;48.80;;;;;;6170470;28;20347;-66
2022/02/10 23:24:10;;;;;;;0.70;0.70;;;19.70;48.90;;;;;;6170141;28;20038;-65
2022/02/10 23:27:11;;;;;;;0.65;0.55;;;19.70;48.90;;;;;;6169520;28;20086;-65
2022/02/10 23:30:12;;;;;;;1.00;0.52;;;19.70;48.90;;;;;;6169868;28;20030;-65
2022/02/10 23:33:23;;;;;;;0.50;0.40;;;19.70;48.90;;;;;;6161575;28;20291;-66
2022/02/10 23:39:34;;;;;;;0.80;0.50;;;19.70;48.90;;;;;;6169639;28;20031;-66
2022/02/10 23:42:34;;;;;;;0.40;0.40;;;19.70;48.90;;;;;;6154073;28;20494;-66
2022/02/10 23:45:40;;;;;;;0.75;0.55;;;19.70;48.90;;;;;;6145689;29;20039;-66
2022/02/10 23:48:41;;;;;;;0.70;0.57;;;19.60;48.90;;;;;;6145440;29;20476;-66
2022/02/10 23:51:49;;;;;;;1.23;0.60;;;19.70;48.90;;;;;;6145916;29;20054;-66
2022/02/10 23:54:55;;;;;;;0.40;0.40;;;19.70;49.00;;;;;;6145516;29;20055;-66
2022/02/10 23:58:24;;;;;;;1.15;0.50;;;19.60;48.90;;;;;;6145469;29;20031;-66
